sensor_id;sensor_type;location;lat;lon;timestamp;noise_LAeq;noise_LA_min;noise_LA_max;noise_LA01;noise_LA95
68945;Laerm;55984;48.790;8.990;2023-01-01T00:01:44;47.71;46.61;50.21;;
68945;Laerm;55984;48.790;8.990;2023-01-01T00:04:11;47.70;46.39;50.08;;
68945;Laerm;55984;48.790;8.990;2023-01-01T00:06:37;47.69;46.64;50.32;;
68945;Laerm;55984;48.790;8.990;2023-01-01T00:09:09;47.68;46.49;50.40;;
68945;Laerm;55984;48.790;8.990;2023-01-01T00:11:53;47.72;46.48;50.01;;
68945;Laerm;55984;48.790;8.990;2023-01-01T00:14:21;47.72;46.44;49.78;;
68945;Laerm;55984;48.790;8.990;2023-01-01T00:16:47;47.72;46.32;50.32;;
68945;Laerm;55984;48.790;8.990;2023-01-01T00:19:13;47.74;46.47;50.49;;
68945;Laerm;55984;48.790;8.990;2023-01-01T00:21:39;47.73;46.56;50.77;;
68945;Laerm;55984;48.790;8.990;2023-01-01T00:24:05;47.71;46.37;50.58;;
68945;Laerm;55984;48.790;8.990;2023-01-01T00:26:31;47.73;46.34;50.51;;
68945;Laerm;55984;48.790;8.990;2023-01-01T00:29:01;47.71;46.52;49.94;;
68945;Laerm;55984;48.790;8.990;2023-01-01T00:31:27;47.73;46.44;50.17;;
68945;Laerm;55984;48.790;8.990;2023-01-01T00:33:55;47.74;46.49;49.69;;
68945;Laerm;55984;48.790;8.990;2023-01-01T00:36:23;47.72;46.46;49.96;;
68945;Laerm;55984;48.790;8.990;2023-01-01T00:38:49;47.73;46.16;50.26;;
68945;Laerm;55984;48.790;8.990;2023-01-01T00:41:16;47.70;46.36;50.09;;
68945;Laerm;55984;48.790;8.990;2023-01-01T00:43:43;47.62;46.50;49.99;;
68945;Laerm;55984;48.790;8.990;2023-01-01T00:46:10;47.72;46.52;50.34;;
68945;Laerm;55984;48.790;8.990;2023-01-01T00:48:36;47.71;46.14;49.54;;
68945;Laerm;55984;48.790;8.990;2023-01-01T00:51:02;47.70;46.37;50.11;;
68945;Laerm;55984;48.790;8.990;2023-01-01T00:53:29;47.70;46.36;50.16;;
68945;Laerm;55984;48.790;8.990;2023-01-01T00:55:54;47.61;46.27;50.14;;
68945;Laerm;55984;48.790;8.990;2023-01-01T00:58:23;47.60;46.45;50.37;;
68945;Laerm;55984;48.790;8.990;2023-01-01T01:00:50;47.70;46.46;49.28;;
68945;Laerm;55984;48.790;8.990;2023-01-01T01:03:17;47.68;46.44;49.87;;
68945;Laerm;55984;48.790;8.990;2023-01-01T01:08:29;47.69;46.41;50.46;;
68945;Laerm;55984;48.790;8.990;2023-01-01T01:11:03;47.64;46.42;49.97;;
68945;Laerm;55984;48.790;8.990;2023-01-01T01:13:34;47.65;46.37;50.33;;
68945;Laerm;55984;48.790;8.990;2023-01-01T01:16:16;47.63;46.41;50.05;;
68945;Laerm;55984;48.790;8.990;2023-01-01T01:18:43;47.57;46.31;50.06;;
68945;Laerm;55984;48.790;8.990;2023-01-01T01:21:09;47.57;46.36;50.15;;
68945;Laerm;55984;48.790;8.990;2023-01-01T01:23:35;47.60;46.30;50.02;;
68945;Laerm;55984;48.790;8.990;2023-01-01T01:28:32;47.64;46.28;50.36;;
68945;Laerm;55984;48.790;8.990;2023-01-01T01:30:59;47.63;46.40;50.30;;
68945;Laerm;55984;48.790;8.990;2023-01-01T01:33:24;47.62;46.34;49.94;;
68945;Laerm;55984;48.790;8.990;2023-01-01T01:35:56;47.59;46.48;50.23;;
68945;Laerm;55984;48.790;8.990;2023-01-01T01:38:21;47.54;46.24;50.29;;
68945;Laerm;55984;48.790;8.990;2023-01-01T01:40:48;47.58;46.35;49.43;;
68945;Laerm;55984;48.790;8.990;2023-01-01T01:43:45;47.59;46.26;50.49;;
68945;Laerm;55984;48.790;8.990;2023-01-01T01:46:17;47.61;46.40;49.81;;
68945;Laerm;55984;48.790;8.990;2023-01-01T01:48:49;47.59;46.27;50.29;;
68945;Laerm;55984;48.790;8.990;2023-01-01T01:51:23;47.61;46.20;50.32;;
68945;Laerm;55984;48.790;8.990;2023-01-01T01:53:54;47.61;46.33;50.09;;
68945;Laerm;55984;48.790;8.990;2023-01-01T01:56:27;47.63;46.39;49.78;;
68945;Laerm;55984;48.790;8.990;2023-01-01T01:58:53;47.63;46.44;49.91;;
68945;Laerm;55984;48.790;8.990;2023-01-01T02:01:19;47.57;46.40;50.52;;
68945;Laerm;55984;48.790;8.990;2023-01-01T02:04:19;47.61;45.97;50.06;;
68945;Laerm;55984;48.790;8.990;2023-01-01T02:06:44;47.62;46.32;49.78;;
68945;Laerm;55984;48.790;8.990;2023-01-01T02:09:10;47.63;46.23;50.09;;
68945;Laerm;55984;48.790;8.990;2023-01-01T02:11:36;47.64;46.46;50.42;;
68945;Laerm;55984;48.790;8.990;2023-01-01T02:14:02;47.65;46.19;49.94;;
68945;Laerm;55984;48.790;8.990;2023-01-01T02:16:48;47.66;46.42;50.17;;
68945;Laerm;55984;48.790;8.990;2023-01-01T02:27:56;47.70;46.44;50.21;;
68945;Laerm;55984;48.790;8.990;2023-01-01T02:30:28;47.63;46.31;49.86;;
68945;Laerm;55984;48.790;8.990;2023-01-01T02:33:02;47.64;46.43;50.25;;
68945;Laerm;55984;48.790;8.990;2023-01-01T02:35:42;47.67;46.48;50.23;;
68945;Laerm;55984;48.790;8.990;2023-01-01T02:38:14;47.76;46.55;50.68;;
68945;Laerm;55984;48.790;8.990;2023-01-01T02:40:48;47.74;46.58;50.28;;
68945;Laerm;55984;48.790;8.990;2023-01-01T02:43:14;47.76;46.45;50.08;;
68945;Laerm;55984;48.790;8.990;2023-01-01T02:45:54;47.64;46.34;50.04;;
68945;Laerm;55984;48.790;8.990;2023-01-01T03:02:11;47.59;46.36;50.28;;
68945;Laerm;55984;48.790;8.990;2023-01-01T03:10:37;47.62;46.41;50.07;;
68945;Laerm;55984;48.790;8.990;2023-01-01T03:13:11;47.61;46.58;50.27;;
68945;Laerm;55984;48.790;8.990;2023-01-01T03:18:26;47.59;46.32;49.86;;
68945;Laerm;55984;48.790;8.990;2023-01-01T03:20:58;47.52;46.17;50.03;;
68945;Laerm;55984;48.790;8.990;2023-01-01T03:23:34;47.54;46.36;50.10;;
68945;Laerm;55984;48.790;8.990;2023-01-01T03:26:05;47.60;46.31;50.01;;
68945;Laerm;55984;48.790;8.990;2023-01-01T03:28:39;47.60;46.35;50.70;;
68945;Laerm;55984;48.790;8.990;2023-01-01T03:31:08;47.60;46.40;49.89;;
68945;Laerm;55984;48.790;8.990;2023-01-01T03:33:50;47.58;46.42;49.99;;
68945;Laerm;55984;48.790;8.990;2023-01-01T03:36:21;47.58;46.21;49.70;;
68945;Laerm;55984;48.790;8.990;2023-01-01T03:39:26;47.57;46.28;50.22;;
68945;Laerm;55984;48.790;8.990;2023-01-01T03:42:01;47.56;45.97;50.20;;
68945;Laerm;55984;48.790;8.990;2023-01-01T03:44:37;47.57;46.42;50.34;;
68945;Laerm;55984;48.790;8.990;2023-01-01T03:47:14;47.53;46.27;50.15;;
68945;Laerm;55984;48.790;8.990;2023-01-01T03:49:41;47.51;45.98;49.91;;
68945;Laerm;55984;48.790;8.990;2023-01-01T03:52:25;47.48;46.42;50.00;;
68945;Laerm;55984;48.790;8.990;2023-01-01T03:55:11;47.45;46.29;49.91;;
68945;Laerm;55984;48.790;8.990;2023-01-01T04:00:22;47.42;46.17;50.08;;
68945;Laerm;55984;48.790;8.990;2023-01-01T04:02:53;47.41;45.93;50.24;;
68945;Laerm;55984;48.790;8.990;2023-01-01T04:05:21;47.40;46.27;50.10;;
68945;Laerm;55984;48.790;8.990;2023-01-01T04:07:48;47.39;46.33;49.90;;
68945;Laerm;55984;48.790;8.990;2023-01-01T04:10:15;47.38;46.32;50.19;;
68945;Laerm;55984;48.790;8.990;2023-01-01T04:12:44;47.38;46.16;49.82;;
68945;Laerm;55984;48.790;8.990;2023-01-01T04:15:10;47.37;46.26;50.46;;
68945;Laerm;55984;48.790;8.990;2023-01-01T04:17:38;47.38;46.10;50.03;;
68945;Laerm;55984;48.790;8.990;2023-01-01T04:20:04;47.36;46.13;49.94;;
68945;Laerm;55984;48.790;8.990;2023-01-01T04:22:30;47.34;46.30;49.94;;
68945;Laerm;55984;48.790;8.990;2023-01-01T04:24:55;47.35;46.39;50.41;;
68945;Laerm;55984;48.790;8.990;2023-01-01T04:27:20;47.36;46.33;49.96;;
68945;Laerm;55984;48.790;8.990;2023-01-01T04:29:46;47.35;46.27;49.74;;
68945;Laerm;55984;48.790;8.990;2023-01-01T04:32:18;47.34;46.24;50.31;;
68945;Laerm;55984;48.790;8.990;2023-01-01T04:34:43;47.33;46.17;50.03;;
68945;Laerm;55984;48.790;8.990;2023-01-01T04:37:13;47.34;46.17;50.55;;
68945;Laerm;55984;48.790;8.990;2023-01-01T04:39:39;47.35;46.28;50.07;;
68945;Laerm;55984;48.790;8.990;2023-01-01T04:42:04;47.34;46.20;50.11;;
68945;Laerm;55984;48.790;8.990;2023-01-01T04:44:30;47.34;46.33;50.28;;
68945;Laerm;55984;48.790;8.990;2023-01-01T04:46:55;47.34;46.23;49.61;;
68945;Laerm;55984;48.790;8.990;2023-01-01T04:49:21;47.33;46.19;49.83;;
68945;Laerm;55984;48.790;8.990;2023-01-01T04:51:46;47.33;46.33;49.97;;
68945;Laerm;55984;48.790;8.990;2023-01-01T04:54:17;47.34;46.13;50.31;;
68945;Laerm;55984;48.790;8.990;2023-01-01T04:56:43;47.32;46.32;49.86;;
68945;Laerm;55984;48.790;8.990;2023-01-01T04:59:08;47.32;46.13;50.08;;
68945;Laerm;55984;48.790;8.990;2023-01-01T05:01:33;47.33;46.16;50.45;;
68945;Laerm;55984;48.790;8.990;2023-01-01T05:04:00;47.34;46.09;49.75;;
68945;Laerm;55984;48.790;8.990;2023-01-01T05:06:28;47.33;46.32;49.61;;
68945;Laerm;55984;48.790;8.990;2023-01-01T05:08:55;47.33;46.15;49.58;;
68945;Laerm;55984;48.790;8.990;2023-01-01T05:11:28;47.35;46.27;49.69;;
68945;Laerm;55984;48.790;8.990;2023-01-01T05:13:57;47.42;46.19;49.91;;
68945;Laerm;55984;48.790;8.990;2023-01-01T05:16:27;47.49;46.36;49.35;;
68945;Laerm;55984;48.790;8.990;2023-01-01T05:18:57;47.55;46.27;50.09;;
68945;Laerm;55984;48.790;8.990;2023-01-01T05:21:28;47.58;46.29;50.58;;
68945;Laerm;55984;48.790;8.990;2023-01-01T05:23:58;47.65;46.42;50.50;;
68945;Laerm;55984;48.790;8.990;2023-01-01T05:26:25;47.68;46.41;50.69;;
68945;Laerm;55984;48.790;8.990;2023-01-01T05:28:52;47.59;46.47;50.71;;
68945;Laerm;55984;48.790;8.990;2023-01-01T05:31:20;47.60;46.34;50.08;;
68945;Laerm;55984;48.790;8.990;2023-01-01T05:33:47;47.62;46.55;50.04;;
68945;Laerm;55984;48.790;8.990;2023-01-01T05:36:16;47.61;46.42;50.21;;
68945;Laerm;55984;48.790;8.990;2023-01-01T05:38:42;47.62;46.46;50.09;;
68945;Laerm;55984;48.790;8.990;2023-01-01T05:41:09;47.69;46.40;50.75;;
68945;Laerm;55984;48.790;8.990;2023-01-01T05:43:36;47.75;46.44;49.95;;
68945;Laerm;55984;48.790;8.990;2023-01-01T05:46:04;47.67;46.29;50.64;;
68945;Laerm;55984;48.790;8.990;2023-01-01T05:48:30;47.63;46.07;50.03;;
68945;Laerm;55984;48.790;8.990;2023-01-01T05:51:07;47.63;46.43;50.44;;
68945;Laerm;55984;48.790;8.990;2023-01-01T05:53:32;47.75;46.53;50.20;;
68945;Laerm;55984;48.790;8.990;2023-01-01T05:56:01;47.76;46.38;50.33;;
68945;Laerm;55984;48.790;8.990;2023-01-01T05:58:28;47.76;46.50;50.03;;
68945;Laerm;55984;48.790;8.990;2023-01-01T06:01:04;47.70;46.39;50.61;;
68945;Laerm;55984;48.790;8.990;2023-01-01T06:03:29;47.65;46.28;50.34;;
68945;Laerm;55984;48.790;8.990;2023-01-01T06:05:55;47.65;46.49;49.72;;
68945;Laerm;55984;48.790;8.990;2023-01-01T06:08:20;47.76;46.57;50.18;;
68945;Laerm;55984;48.790;8.990;2023-01-01T06:10:47;47.76;46.56;50.12;;
68945;Laerm;55984;48.790;8.990;2023-01-01T06:13:12;47.74;46.18;50.10;;
68945;Laerm;55984;48.790;8.990;2023-01-01T06:15:37;47.75;46.55;50.56;;
68945;Laerm;55984;48.790;8.990;2023-01-01T06:18:03;47.75;46.50;49.95;;
68945;Laerm;55984;48.790;8.990;2023-01-01T06:20:28;47.76;46.59;50.53;;
68945;Laerm;55984;48.790;8.990;2023-01-01T06:22:53;47.74;46.56;50.05;;
68945;Laerm;55984;48.790;8.990;2023-01-01T06:25:24;47.76;46.44;50.08;;
68945;Laerm;55984;48.790;8.990;2023-01-01T06:27:49;47.68;46.39;50.37;;
68945;Laerm;55984;48.790;8.990;2023-01-01T06:30:14;47.73;46.57;50.74;;
68945;Laerm;55984;48.790;8.990;2023-01-01T06:32:40;47.74;46.52;50.45;;
68945;Laerm;55984;48.790;8.990;2023-01-01T06:35:06;47.75;46.40;50.18;;
68945;Laerm;55984;48.790;8.990;2023-01-01T06:37:31;47.76;46.37;50.35;;
68945;Laerm;55984;48.790;8.990;2023-01-01T06:39:57;47.74;46.33;50.98;;
68945;Laerm;55984;48.790;8.990;2023-01-01T06:42:23;47.72;46.51;50.46;;
68945;Laerm;55984;48.790;8.990;2023-01-01T06:44:49;47.74;46.44;50.53;;
68945;Laerm;55984;48.790;8.990;2023-01-01T06:47:14;47.74;46.38;50.41;;
68945;Laerm;55984;48.790;8.990;2023-01-01T06:49:40;47.73;46.41;50.47;;
68945;Laerm;55984;48.790;8.990;2023-01-01T06:52:05;47.73;46.49;49.94;;
68945;Laerm;55984;48.790;8.990;2023-01-01T06:54:31;47.76;46.50;50.50;;
68945;Laerm;55984;48.790;8.990;2023-01-01T06:56:56;47.73;46.36;50.33;;
68945;Laerm;55984;48.790;8.990;2023-01-01T06:59:21;47.75;46.55;49.97;;
68945;Laerm;55984;48.790;8.990;2023-01-01T07:01:47;47.75;46.65;50.43;;
68945;Laerm;55984;48.790;8.990;2023-01-01T07:04:14;47.76;46.55;50.63;;
68945;Laerm;55984;48.790;8.990;2023-01-01T07:06:41;47.71;46.55;49.80;;
68945;Laerm;55984;48.790;8.990;2023-01-01T07:09:07;47.65;46.46;50.07;;
68945;Laerm;55984;48.790;8.990;2023-01-01T07:11:34;47.66;46.32;50.43;;
68945;Laerm;55984;48.790;8.990;2023-01-01T07:14:01;47.70;46.33;49.97;;
68945;Laerm;55984;48.790;8.990;2023-01-01T07:16:26;47.82;46.45;49.89;;
68945;Laerm;55984;48.790;8.990;2023-01-01T07:18:52;47.80;46.62;50.37;;
68945;Laerm;55984;48.790;8.990;2023-01-01T07:21:32;47.70;46.57;50.18;;
68945;Laerm;55984;48.790;8.990;2023-01-01T07:23:59;47.80;46.39;50.73;;
68945;Laerm;55984;48.790;8.990;2023-01-01T07:26:26;47.82;46.62;49.90;;
68945;Laerm;55984;48.790;8.990;2023-01-01T07:28:52;47.83;46.33;50.24;;
68945;Laerm;55984;48.790;8.990;2023-01-01T07:31:18;47.84;46.56;49.98;;
68945;Laerm;55984;48.790;8.990;2023-01-01T07:33:43;47.82;46.51;50.72;;
68945;Laerm;55984;48.790;8.990;2023-01-01T07:36:09;47.80;46.63;50.21;;
68945;Laerm;55984;48.790;8.990;2023-01-01T07:38:34;47.80;46.56;50.09;;
68945;Laerm;55984;48.790;8.990;2023-01-01T07:41:00;47.79;46.49;50.89;;
68945;Laerm;55984;48.790;8.990;2023-01-01T07:43:25;47.76;46.14;50.15;;
68945;Laerm;55984;48.790;8.990;2023-01-01T07:45:52;47.69;46.52;50.45;;
68945;Laerm;55984;48.790;8.990;2023-01-01T07:48:17;47.80;46.53;50.35;;
68945;Laerm;55984;48.790;8.990;2023-01-01T07:50:42;47.81;46.55;50.07;;
68945;Laerm;55984;48.790;8.990;2023-01-01T07:53:08;47.81;46.44;49.75;;
68945;Laerm;55984;48.790;8.990;2023-01-01T07:55:33;47.79;46.46;50.27;;
68945;Laerm;55984;48.790;8.990;2023-01-01T07:57:59;47.77;46.52;50.10;;
68945;Laerm;55984;48.790;8.990;2023-01-01T08:00:25;47.76;46.44;50.03;;
68945;Laerm;55984;48.790;8.990;2023-01-01T08:02:50;47.76;46.52;50.76;;
68945;Laerm;55984;48.790;8.990;2023-01-01T08:05:16;47.77;46.54;50.72;;
68945;Laerm;55984;48.790;8.990;2023-01-01T08:07:46;47.77;46.44;49.78;;
68945;Laerm;55984;48.790;8.990;2023-01-01T08:10:13;47.77;46.42;50.43;;
68945;Laerm;55984;48.790;8.990;2023-01-01T08:12:39;47.76;46.51;50.13;;
68945;Laerm;55984;48.790;8.990;2023-01-01T08:15:05;47.79;46.56;50.09;;
68945;Laerm;55984;48.790;8.990;2023-01-01T08:17:31;47.79;46.57;50.40;;
68945;Laerm;55984;48.790;8.990;2023-01-01T08:19:56;47.77;46.39;50.05;;
68945;Laerm;55984;48.790;8.990;2023-01-01T08:22:24;47.67;46.31;50.68;;
68945;Laerm;55984;48.790;8.990;2023-01-01T08:24:49;47.67;46.57;50.33;;
68945;Laerm;55984;48.790;8.990;2023-01-01T08:27:15;47.69;46.35;50.36;;
68945;Laerm;55984;48.790;8.990;2023-01-01T08:29:42;47.68;46.48;49.61;;
68945;Laerm;55984;48.790;8.990;2023-01-01T08:32:07;47.69;46.11;50.83;;
68945;Laerm;55984;48.790;8.990;2023-01-01T08:34:33;47.81;46.62;50.51;;
68945;Laerm;55984;48.790;8.990;2023-01-01T08:36:58;47.81;46.26;51.03;;
68945;Laerm;55984;48.790;8.990;2023-01-01T08:39:24;47.82;46.39;50.13;;
68945;Laerm;55984;48.790;8.990;2023-01-01T08:41:50;47.85;46.58;50.32;;
68945;Laerm;55984;48.790;8.990;2023-01-01T08:44:16;47.85;46.57;50.40;;
68945;Laerm;55984;48.790;8.990;2023-01-01T08:46:41;47.88;46.55;50.14;;
68945;Laerm;55984;48.790;8.990;2023-01-01T08:49:06;47.89;46.37;50.54;;
68945;Laerm;55984;48.790;8.990;2023-01-01T08:51:35;47.90;46.43;50.64;;
68945;Laerm;55984;48.790;8.990;2023-01-01T08:54:00;47.90;46.58;50.63;;
68945;Laerm;55984;48.790;8.990;2023-01-01T08:56:27;47.90;46.65;51.16;;
68945;Laerm;55984;48.790;8.990;2023-01-01T08:58:52;47.90;46.62;50.19;;
68945;Laerm;55984;48.790;8.990;2023-01-01T09:01:18;47.94;46.49;50.26;;
68945;Laerm;55984;48.790;8.990;2023-01-01T09:03:47;47.98;46.54;50.50;;
68945;Laerm;55984;48.790;8.990;2023-01-01T09:06:13;48.01;46.29;49.56;;
68945;Laerm;55984;48.790;8.990;2023-01-01T09:08:39;47.93;46.53;50.13;;
68945;Laerm;55984;48.790;8.990;2023-01-01T09:11:04;47.92;46.68;50.13;;
68945;Laerm;55984;48.790;8.990;2023-01-01T09:13:30;47.82;46.45;50.37;;
68945;Laerm;55984;48.790;8.990;2023-01-01T09:15:56;47.82;46.62;50.51;;
68945;Laerm;55984;48.790;8.990;2023-01-01T09:18:22;47.90;46.60;50.95;;
68945;Laerm;55984;48.790;8.990;2023-01-01T09:20:48;48.02;46.56;51.32;;
68945;Laerm;55984;48.790;8.990;2023-01-01T09:23:13;48.08;46.72;50.51;;
68945;Laerm;55984;48.790;8.990;2023-01-01T09:25:40;48.12;46.60;50.70;;
68945;Laerm;55984;48.790;8.990;2023-01-01T09:28:08;48.17;46.75;50.51;;
68945;Laerm;55984;48.790;8.990;2023-01-01T09:30:34;48.22;46.78;50.55;;
68945;Laerm;55984;48.790;8.990;2023-01-01T09:33:00;48.24;46.76;50.67;;
68945;Laerm;55984;48.790;8.990;2023-01-01T09:35:26;48.24;46.66;50.26;;
68945;Laerm;55984;48.790;8.990;2023-01-01T09:37:52;48.28;46.74;50.96;;
68945;Laerm;55984;48.790;8.990;2023-01-01T09:42:58;48.19;46.73;50.72;;
68945;Laerm;55984;48.790;8.990;2023-01-01T09:45:30;48.35;46.91;51.48;;
68945;Laerm;55984;48.790;8.990;2023-01-01T09:48:04;48.33;46.76;50.52;;
68945;Laerm;55984;48.790;8.990;2023-01-01T09:53:02;48.46;46.94;50.73;;
68945;Laerm;55984;48.790;8.990;2023-01-01T09:55:43;48.56;47.09;50.69;;
68945;Laerm;55984;48.790;8.990;2023-01-01T09:58:10;48.36;46.85;50.46;;
68945;Laerm;55984;48.790;8.990;2023-01-01T10:00:40;48.42;46.97;50.54;;
68945;Laerm;55984;48.790;8.990;2023-01-01T10:04:09;48.57;46.85;50.77;;
68945;Laerm;55984;48.790;8.990;2023-01-01T10:12:06;49.01;47.19;51.14;;
68945;Laerm;55984;48.790;8.990;2023-01-01T10:14:42;48.96;47.02;51.16;;
68945;Laerm;55984;48.790;8.990;2023-01-01T10:17:30;49.32;47.49;52.19;;
68945;Laerm;55984;48.790;8.990;2023-01-01T10:20:31;49.23;47.11;52.22;;
68945;Laerm;55984;48.790;8.990;2023-01-01T10:23:02;49.65;47.30;52.80;;
68945;Laerm;55984;48.790;8.990;2023-01-01T10:25:32;49.86;47.72;52.89;;
68945;Laerm;55984;48.790;8.990;2023-01-01T10:28:09;49.73;47.75;52.59;;
68945;Laerm;55984;48.790;8.990;2023-01-01T10:30:35;49.81;47.50;53.13;;
68945;Laerm;55984;48.790;8.990;2023-01-01T10:33:01;51.15;47.53;54.74;;
68945;Laerm;55984;48.790;8.990;2023-01-01T10:35:45;50.76;47.58;53.49;;
68945;Laerm;55984;48.790;8.990;2023-01-01T10:38:25;49.29;47.45;51.96;;
68945;Laerm;55984;48.790;8.990;2023-01-01T10:41:02;49.09;47.45;51.71;;
68945;Laerm;55984;48.790;8.990;2023-01-01T10:43:31;49.17;47.24;51.58;;
68945;Laerm;55984;48.790;8.990;2023-01-01T10:46:00;49.20;47.00;51.63;;
68945;Laerm;55984;48.790;8.990;2023-01-01T10:48:28;49.24;47.22;51.88;;
68945;Laerm;55984;48.790;8.990;2023-01-01T10:51:00;49.49;47.26;52.09;;
68945;Laerm;55984;48.790;8.990;2023-01-01T10:56:15;49.75;47.54;52.32;;
68945;Laerm;55984;48.790;8.990;2023-01-01T10:58:56;49.92;47.62;52.90;;
68945;Laerm;55984;48.790;8.990;2023-01-01T11:01:28;50.27;47.99;53.23;;
68945;Laerm;55984;48.790;8.990;2023-01-01T11:06:41;49.78;47.48;52.75;;
68945;Laerm;55984;48.790;8.990;2023-01-01T11:09:26;50.30;47.72;53.36;;
68945;Laerm;55984;48.790;8.990;2023-01-01T11:12:00;51.11;48.37;54.79;;
68945;Laerm;55984;48.790;8.990;2023-01-01T11:14:27;51.55;48.71;55.11;;
68945;Laerm;55984;48.790;8.990;2023-01-01T11:16:55;52.41;49.25;56.05;;
68945;Laerm;55984;48.790;8.990;2023-01-01T11:19:28;52.75;49.24;56.36;;
68945;Laerm;55984;48.790;8.990;2023-01-01T11:21:54;53.16;49.93;57.10;;
68945;Laerm;55984;48.790;8.990;2023-01-01T11:24:22;53.31;49.81;56.92;;
68945;Laerm;55984;48.790;8.990;2023-01-01T11:26:49;53.54;49.35;57.01;;
68945;Laerm;55984;48.790;8.990;2023-01-01T11:31:40;53.59;50.17;58.74;;
68945;Laerm;55984;48.790;8.990;2023-01-01T11:34:42;53.64;49.41;57.58;;
68945;Laerm;55984;48.790;8.990;2023-01-01T11:39:36;52.82;49.21;56.57;;
68945;Laerm;55984;48.790;8.990;2023-01-01T11:42:06;53.40;49.57;56.73;;
68945;Laerm;55984;48.790;8.990;2023-01-01T11:44:36;53.45;50.04;57.80;;
68945;Laerm;55984;48.790;8.990;2023-01-01T11:47:04;53.54;49.99;56.90;;
68945;Laerm;55984;48.790;8.990;2023-01-01T11:49:31;53.34;49.97;57.10;;
68945;Laerm;55984;48.790;8.990;2023-01-01T11:51:57;53.12;49.56;56.06;;
68945;Laerm;55984;48.790;8.990;2023-01-01T11:54:31;52.96;49.65;56.55;;
68945;Laerm;55984;48.790;8.990;2023-01-01T11:57:27;52.62;49.39;56.39;;
68945;Laerm;55984;48.790;8.990;2023-01-01T11:59:59;52.82;48.59;56.61;;
68945;Laerm;55984;48.790;8.990;2023-01-01T12:02:44;52.34;49.41;56.33;;
68945;Laerm;55984;48.790;8.990;2023-01-01T12:07:42;53.38;49.99;57.48;;
68945;Laerm;55984;48.790;8.990;2023-01-01T12:13:05;53.66;50.00;57.62;;
68945;Laerm;55984;48.790;8.990;2023-01-01T12:15:38;53.81;49.94;57.06;;
68945;Laerm;55984;48.790;8.990;2023-01-01T12:18:17;53.96;50.82;57.12;;
68945;Laerm;55984;48.790;8.990;2023-01-01T12:20:56;53.31;50.20;56.74;;
68945;Laerm;55984;48.790;8.990;2023-01-01T12:23:23;53.76;50.29;57.49;;
68945;Laerm;55984;48.790;8.990;2023-01-01T12:26:12;54.20;50.58;57.98;;
68945;Laerm;55984;48.790;8.990;2023-01-01T12:31:53;53.84;50.62;57.57;;
68945;Laerm;55984;48.790;8.990;2023-01-01T12:37:18;53.53;49.81;57.11;;
68945;Laerm;55984;48.790;8.990;2023-01-01T12:43:10;53.14;48.95;56.78;;
68945;Laerm;55984;48.790;8.990;2023-01-01T12:46:11;52.51;49.03;55.93;;
68945;Laerm;55984;48.790;8.990;2023-01-01T12:49:12;52.16;48.52;55.96;;
68945;Laerm;55984;48.790;8.990;2023-01-01T12:51:48;51.51;47.65;55.24;;
68945;Laerm;55984;48.790;8.990;2023-01-01T12:59:35;52.20;49.18;55.30;;
68945;Laerm;55984;48.790;8.990;2023-01-01T13:04:49;51.77;48.72;55.36;;
68945;Laerm;55984;48.790;8.990;2023-01-01T13:07:29;51.89;48.78;55.24;;
68945;Laerm;55984;48.790;8.990;2023-01-01T13:09:55;51.56;48.70;55.07;;
68945;Laerm;55984;48.790;8.990;2023-01-01T13:12:23;51.85;48.77;55.57;;
68945;Laerm;55984;48.790;8.990;2023-01-01T13:14:50;52.35;48.87;55.53;;
68945;Laerm;55984;48.790;8.990;2023-01-01T13:17:19;52.46;49.03;55.60;;
68945;Laerm;55984;48.790;8.990;2023-01-01T13:19:48;52.44;48.82;55.77;;
68945;Laerm;55984;48.790;8.990;2023-01-01T13:35:44;52.68;49.26;55.92;;
68945;Laerm;55984;48.790;8.990;2023-01-01T13:43:51;51.18;48.09;53.82;;
68945;Laerm;55984;48.790;8.990;2023-01-01T13:46:22;50.69;47.96;53.50;;
68945;Laerm;55984;48.790;8.990;2023-01-01T13:49:05;50.89;47.90;54.63;;
68945;Laerm;55984;48.790;8.990;2023-01-01T13:51:55;50.85;48.13;53.75;;
68945;Laerm;55984;48.790;8.990;2023-01-01T14:00:20;50.79;47.97;53.62;;
68945;Laerm;55984;48.790;8.990;2023-01-01T14:02:59;50.15;47.91;53.37;;
68945;Laerm;55984;48.790;8.990;2023-01-01T14:05:31;50.02;47.79;52.40;;
68945;Laerm;55984;48.790;8.990;2023-01-01T14:07:57;49.93;47.61;52.45;;
68945;Laerm;55984;48.790;8.990;2023-01-01T14:10:31;49.86;47.69;57.25;;
68945;Laerm;55984;48.790;8.990;2023-01-01T14:13:13;49.77;47.58;52.56;;
68945;Laerm;55984;48.790;8.990;2023-01-01T14:15:49;50.07;47.54;53.11;;
68945;Laerm;55984;48.790;8.990;2023-01-01T14:18:17;50.07;47.79;52.64;;
68945;Laerm;55984;48.790;8.990;2023-01-01T14:20:49;49.96;47.55;52.64;;
68945;Laerm;55984;48.790;8.990;2023-01-01T14:23:34;49.47;47.45;52.06;;
68945;Laerm;55984;48.790;8.990;2023-01-01T14:26:03;49.49;47.00;52.14;;
68945;Laerm;55984;48.790;8.990;2023-01-01T14:28:31;49.23;47.14;51.63;;
68945;Laerm;55984;48.790;8.990;2023-01-01T14:31:00;48.84;47.19;50.87;;
68945;Laerm;55984;48.790;8.990;2023-01-01T14:33:31;48.84;47.13;51.01;;
68945;Laerm;55984;48.790;8.990;2023-01-01T14:35:59;48.88;47.10;51.72;;
68945;Laerm;55984;48.790;8.990;2023-01-01T14:38:41;48.59;47.03;50.99;;
68945;Laerm;55984;48.790;8.990;2023-01-01T14:41:16;48.35;46.76;51.50;;
68945;Laerm;55984;48.790;8.990;2023-01-01T14:43:44;48.26;46.59;51.24;;
68945;Laerm;55984;48.790;8.990;2023-01-01T14:46:16;48.37;46.83;51.13;;
68945;Laerm;55984;48.790;8.990;2023-01-01T14:48:48;48.36;46.95;50.51;;
68945;Laerm;55984;48.790;8.990;2023-01-01T14:51:17;48.54;46.76;50.86;;
68945;Laerm;55984;48.790;8.990;2023-01-01T14:53:44;48.50;46.75;50.63;;
68945;Laerm;55984;48.790;8.990;2023-01-01T14:56:23;48.47;46.79;50.47;;
68945;Laerm;55984;48.790;8.990;2023-01-01T14:58:50;48.40;46.77;51.08;;
68945;Laerm;55984;48.790;8.990;2023-01-01T15:01:25;48.34;46.74;50.75;;
68945;Laerm;55984;48.790;8.990;2023-01-01T15:04:19;48.25;46.69;51.38;;
68945;Laerm;55984;48.790;8.990;2023-01-01T15:06:54;48.21;46.67;50.12;;
68945;Laerm;55984;48.790;8.990;2023-01-01T15:09:21;48.15;46.74;50.75;;
68945;Laerm;55984;48.790;8.990;2023-01-01T15:11:50;48.10;46.48;50.31;;
68945;Laerm;55984;48.790;8.990;2023-01-01T15:14:32;48.04;46.72;50.39;;
68945;Laerm;55984;48.790;8.990;2023-01-01T15:17:08;48.01;46.57;50.66;;
68945;Laerm;55984;48.790;8.990;2023-01-01T15:19:34;47.98;46.60;49.77;;
68945;Laerm;55984;48.790;8.990;2023-01-01T15:22:07;47.90;46.49;50.25;;
68945;Laerm;55984;48.790;8.990;2023-01-01T15:24:35;47.87;46.62;50.80;;
68945;Laerm;55984;48.790;8.990;2023-01-01T15:27:03;47.82;46.58;50.24;;
68945;Laerm;55984;48.790;8.990;2023-01-01T15:29:34;47.80;46.50;50.54;;
68945;Laerm;55984;48.790;8.990;2023-01-01T15:32:12;47.78;46.50;49.86;;
68945;Laerm;55984;48.790;8.990;2023-01-01T15:34:55;47.72;46.62;50.43;;
68945;Laerm;55984;48.790;8.990;2023-01-01T15:37:28;47.71;46.57;50.33;;
68945;Laerm;55984;48.790;8.990;2023-01-01T15:39:58;47.68;46.51;49.83;;
68945;Laerm;55984;48.790;8.990;2023-01-01T15:42:33;47.68;46.32;50.02;;
68945;Laerm;55984;48.790;8.990;2023-01-01T15:47:54;47.63;46.46;50.33;;
68945;Laerm;55984;48.790;8.990;2023-01-01T15:50:23;47.62;46.37;50.17;;
68945;Laerm;55984;48.790;8.990;2023-01-01T15:52:59;47.53;46.26;50.10;;